createdAt,value
2023-02-02T00:07:59.541Z,80.00
2023-02-02T00:19:08.128Z,80.11
2023-02-02T00:29:58.232Z,79.79
2023-02-02T00:41:12.291Z,80.36
2023-02-02T00:52:00.627Z,81.06
2023-02-02T01:02:38.531Z,81.69
2023-02-02T01:13:44.373Z,82.29
2023-02-02T01:24:41.609Z,82.94
2023-02-02T01:35:29.227Z,83.36
2023-02-02T01:45:57.032Z,83.36
2023-02-02T01:56:20.366Z,83.44
2023-02-02T02:07:01.876Z,83.51
2023-02-02T02:18:16.573Z,83.58
2023-02-02T02:29:50.067Z,83.39
2023-02-02T02:40:56.998Z,83.42
2023-02-02T02:52:30.978Z,83.67
2023-02-02T03:03:46.380Z,83.52
2023-02-02T03:14:51.414Z,83.28
2023-02-02T03:25:19.193Z,83.66
2023-02-02T03:36:15.673Z,83.65
2023-02-02T03:47:34.280Z,83.61
2023-02-02T03:58:06.246Z,83.32
2023-02-02T04:08:21.790Z,82.80
2023-02-02T04:18:42.748Z,82.73
2023-02-02T04:28:46.833Z,82.53
2023-02-02T04:39:45.054Z,82.35
2023-02-02T04:50:14.710Z,82.03
2023-02-02T05:01:01.831Z,82.35
2023-02-02T05:11:24.326Z,82.32
2023-02-02T05:22:49.599Z,82.32
2023-02-02T05:33:03.572Z,81.97
2023-02-02T05:43:39.171Z,81.75
2023-02-02T05:54:20.898Z,82.00
2023-02-02T06:04:48.134Z,81.97
2023-02-02T06:15:38.236Z,81.60
2023-02-02T06:26:16.856Z,81.06
2023-02-02T06:36:34.214Z,80.86
2023-02-02T06:46:41.777Z,80.42
2023-02-02T06:56:56.644Z,80.40
2023-02-02T07:07:03.806Z,80.85
2023-02-02T07:17:31.306Z,79.84
2023-02-02T07:27:49.403Z,78.81
2023-02-02T07:38:15.885Z,78.58
2023-02-02T07:48:20.116Z,77.94
2023-02-02T07:58:38.349Z,77.66
2023-02-02T08:08:45.596Z,76.90
2023-02-02T08:18:51.850Z,77.19
2023-02-02T08:29:19.235Z,76.99
2023-02-02T08:39:52.782Z,77.22
2023-02-02T08:50:23.540Z,77.07
2023-02-02T09:00:31.013Z,77.37
2023-02-02T09:10:40.883Z,77.39
2023-02-02T09:20:44.883Z,76.72
2023-02-02T09:30:52.247Z,77.32
2023-02-02T09:41:09.520Z,77.75
2023-02-02T09:51:57.869Z,77.76
2023-02-02T10:02:30.954Z,78.66
2023-02-02T10:12:49.679Z,78.78
2023-02-02T10:24:03.504Z,79.48
2023-02-02T10:35:13.645Z,79.64
2023-02-02T10:45:53.909Z,80.25
2023-02-02T10:56:29.431Z,80.55
2023-02-02T11:06:53.911Z,80.57
2023-02-02T11:17:54.048Z,81.27
2023-02-02T11:29:22.399Z,81.46
2023-02-02T11:40:00.258Z,81.27
2023-02-02T11:50:27.291Z,81.44
2023-02-02T12:00:49.809Z,81.21
2023-02-02T12:11:07.700Z,81.52
2023-02-02T12:21:57.999Z,81.24
2023-02-02T12:32:42.306Z,81.08
2023-02-02T12:43:07.527Z,80.74
2023-02-02T12:53:35.275Z,80.10
2023-02-02T13:03:55.539Z,79.42
2023-02-02T13:14:09.997Z,79.97
2023-02-02T13:24:27.776Z,80.09
2023-02-02T13:35:16.197Z,80.15
2023-02-02T13:45:26.990Z,80.86
2023-02-02T13:55:54.272Z,81.62
2023-02-02T14:06:27.560Z,81.27
2023-02-02T14:16:43.242Z,80.91
2023-02-02T14:27:30.881Z,80.52
2023-02-02T14:37:59.440Z,80.30
2023-02-02T14:48:21.058Z,80.24
2023-02-02T14:58:27.747Z,79.79
2023-02-02T15:08:46.903Z,79.88
2023-02-02T15:19:07.515Z,79.48
2023-02-02T15:29:25.095Z,78.96
2023-02-02T15:39:53.183Z,79.19
2023-02-02T15:50:19.777Z,79.59
2023-02-02T16:00:59.256Z,80.15
2023-02-02T16:11:16.396Z,80.54
2023-02-02T16:21:38.442Z,80.48
2023-02-02T16:31:56.451Z,80.63
2023-02-02T16:42:32.057Z,81.13
2023-02-02T16:52:54.022Z,80.83
2023-02-02T17:03:19.268Z,80.45
2023-02-02T17:13:52.294Z,78.75
2023-02-02T17:23:57.240Z,77.08
2023-02-02T17:34:24.189Z,77.56
2023-02-02T17:44:40.145Z,77.54
2023-02-02T17:54:49.473Z,78.10
2023-02-02T18:05:25.903Z,78.62
2023-02-02T18:16:07.686Z,77.40
2023-02-02T18:26:42.319Z,75.83
2023-02-02T18:37:20.605Z,75.82
2023-02-02T18:59:44.758Z,75.24
2023-02-02T19:10:13.867Z,76.61
2023-02-02T19:21:03.465Z,77.16
2023-02-02T19:32:14.227Z,77.42
2023-02-02T19:43:07.244Z,76.78
2023-02-02T19:53:57.847Z,76.31
2023-02-02T20:05:01.841Z,76.26
2023-02-02T20:15:46.408Z,76.40
2023-02-02T20:26:38.738Z,76.58
2023-02-02T20:36:46.777Z,77.13
2023-02-02T20:47:56.482Z,77.85
2023-02-02T20:58:42.586Z,78.05
2023-02-02T21:09:42.632Z,78.70
2023-02-02T21:20:16.503Z,78.76
2023-02-02T21:30:51.915Z,78.98
2023-02-02T21:41:36.647Z,79.73
2023-02-02T21:52:14.197Z,80.27
2023-02-02T22:03:21.813Z,80.26
2023-02-02T22:14:06.780Z,80.74
2023-02-02T22:24:57.214Z,81.00
2023-02-02T22:35:24.559Z,80.05
2023-02-02T22:46:19.119Z,79.83
2023-02-02T22:57:43.121Z,79.63
2023-02-02T23:08:49.524Z,79.33
2023-02-02T23:20:01.757Z,79.32
2023-02-02T23:31:00.608Z,79.01
2023-02-02T23:42:13.044Z,78.95
2023-02-02T23:52:57.997Z,79.19
